createdAt,value
2019-02-16T00:00:48.459Z,6.87
2019-02-16T00:03:17.835Z,7.30
2019-02-16T00:05:47.155Z,8.27
2019-02-16T00:08:16.478Z,6.40
2019-02-16T00:10:45.840Z,7.00
2019-02-16T00:13:15.170Z,9.40
2019-02-16T00:15:44.489Z,7.80
2019-02-16T00:18:13.848Z,9.50
2019-02-16T00:20:43.170Z,7.20
2019-02-16T00:23:12.504Z,6.73
2019-02-16T00:25:41.863Z,8.97
2019-02-16T00:28:11.199Z,6.17
2019-02-16T00:30:40.527Z,8.23
2019-02-16T00:33:09.878Z,7.07
2019-02-16T00:35:39.212Z,7.47
2019-02-16T00:38:08.530Z,8.10
2019-02-16T00:40:37.894Z,6.63
2019-02-16T00:43:07.218Z,8.83
2019-02-16T00:45:36.554Z,5.90
2019-02-16T00:48:05.921Z,6.63
2019-02-16T00:50:35.251Z,6.63
2019-02-16T00:53:04.580Z,6.43
2019-02-16T00:55:34.006Z,6.23
2019-02-16T00:58:03.335Z,9.00
2019-02-16T01:00:32.662Z,4.80
2019-02-16T01:03:02.031Z,6.37
2019-02-16T01:05:31.363Z,6.93
2019-02-16T01:08:00.700Z,7.63
2019-02-16T01:10:30.054Z,6.17
2019-02-16T01:12:59.382Z,6.77
2019-02-16T01:15:28.709Z,6.00
2019-02-16T01:17:58.074Z,5.93
2019-02-16T01:20:27.398Z,7.90
2019-02-16T01:22:56.726Z,5.37
2019-02-16T01:25:26.095Z,7.37
2019-02-16T01:27:55.420Z,5.37
2019-02-16T01:30:24.752Z,8.60
2019-02-16T01:32:54.114Z,5.67
2019-02-16T01:35:23.442Z,7.33
2019-02-16T01:37:52.784Z,6.60
2019-02-16T01:40:22.156Z,7.13
2019-02-16T01:42:51.478Z,7.67
2019-02-16T01:45:20.818Z,6.10
2019-02-16T01:47:50.181Z,7.67
2019-02-16T01:50:19.522Z,8.57
2019-02-16T01:52:48.854Z,6.13
2019-02-16T01:55:18.231Z,6.47
2019-02-16T01:57:47.560Z,9.60
2019-02-16T02:00:16.890Z,6.97
2019-02-16T02:02:46.259Z,6.83
2019-02-16T02:05:15.599Z,6.77
2019-02-16T02:07:44.933Z,10.23
2019-02-16T02:10:14.294Z,6.33
2019-02-16T02:12:43.623Z,6.37
2019-02-16T02:15:13.026Z,7.27
2019-02-16T02:17:42.391Z,8.93
2019-02-16T02:20:11.718Z,6.17
2019-02-16T02:22:41.054Z,6.33
2019-02-16T02:25:11.145Z,6.23
2019-02-16T02:27:40.474Z,6.20
2019-02-16T02:30:10.649Z,5.90
2019-02-16T02:32:40.013Z,6.07
2019-02-16T02:35:09.584Z,7.13
2019-02-16T02:37:38.915Z,5.53
2019-02-16T02:40:08.628Z,6.20
2019-02-16T02:42:37.973Z,5.77
2019-02-16T02:45:09.831Z,6.17
2019-02-16T02:47:39.207Z,5.23
2019-02-16T02:50:08.658Z,7.00
2019-02-16T02:52:38.040Z,7.30
2019-02-16T02:55:07.824Z,4.93
2019-02-16T02:57:37.161Z,6.17
2019-02-16T03:00:09.203Z,5.67
2019-02-16T03:02:38.564Z,7.07
2019-02-16T03:05:09.727Z,6.83
2019-02-16T03:07:39.071Z,6.50
2019-02-16T03:10:08.486Z,7.23
2019-02-16T03:12:37.834Z,5.77
2019-02-16T03:15:07.511Z,6.27
2019-02-16T03:17:36.890Z,7.17
2019-02-16T03:20:06.351Z,6.80
2019-02-16T03:22:58.097Z,7.40
2019-02-16T03:25:27.423Z,5.60
2019-02-16T03:28:05.654Z,6.03
2019-02-16T03:30:54.372Z,5.53
2019-02-16T03:33:35.877Z,5.67
2019-02-16T03:36:36.761Z,7.17
2019-02-16T03:39:09.222Z,5.67
2019-02-16T03:41:38.574Z,5.10
2019-02-16T03:44:07.901Z,6.07
2019-02-16T03:46:37.271Z,6.60
2019-02-16T03:49:06.674Z,5.77
2019-02-16T03:51:35.999Z,7.97
2019-02-16T03:54:05.363Z,5.90
2019-02-16T03:56:34.700Z,4.70
2019-02-16T03:59:04.014Z,5.83
2019-02-16T04:01:33.376Z,7.27
2019-02-16T04:04:02.706Z,5.97
2019-02-16T04:06:32.037Z,6.00
2019-02-16T04:09:01.407Z,5.37
2019-02-16T04:11:30.726Z,5.37
2019-02-16T04:14:00.049Z,5.47
2019-02-16T04:16:29.419Z,5.40
2019-02-16T04:18:58.742Z,5.17
2019-02-16T04:21:28.069Z,6.57
2019-02-16T04:23:57.435Z,7.27
2019-02-16T04:26:26.767Z,6.03
2019-02-16T04:28:56.162Z,6.60
2019-02-16T04:31:25.537Z,5.77
2019-02-16T04:33:54.828Z,5.77
2019-02-16T04:36:24.207Z,6.47
2019-02-16T04:38:53.571Z,5.20
2019-02-16T04:41:22.902Z,5.77
2019-02-16T04:43:52.226Z,5.47
2019-02-16T04:46:21.590Z,6.73
2019-02-16T04:48:50.914Z,6.83
2019-02-16T04:51:20.252Z,6.87
2019-02-16T04:53:49.606Z,6.90
2019-02-16T04:56:18.942Z,8.27
2019-02-16T04:58:48.276Z,7.47
2019-02-16T05:01:17.633Z,6.20
2019-02-16T05:03:47.199Z,6.57
2019-02-16T05:06:16.575Z,9.27
2019-02-16T05:08:45.941Z,5.07
2019-02-16T05:11:15.273Z,6.00
2019-02-16T05:13:44.607Z,6.97
2019-02-16T05:16:13.964Z,6.90
2019-02-16T05:18:43.292Z,6.20
2019-02-16T05:21:12.621Z,5.60
2019-02-16T05:23:42.000Z,6.80
2019-02-16T05:26:11.333Z,7.70
2019-02-16T05:28:40.672Z,5.77
2019-02-16T05:31:10.099Z,6.30
2019-02-16T05:33:39.440Z,7.80
2019-02-16T05:36:08.779Z,6.20
2019-02-16T05:38:38.150Z,7.50
2019-02-16T05:41:07.476Z,4.73
2019-02-16T05:43:36.803Z,7.97
2019-02-16T05:46:06.194Z,7.27
2019-02-16T05:48:35.527Z,8.07
2019-02-16T05:51:04.856Z,5.80
2019-02-16T05:53:34.217Z,5.47
2019-02-16T05:56:03.558Z,6.83
2019-02-16T05:58:32.953Z,8.23
2019-02-16T06:01:02.310Z,7.97
2019-02-16T06:03:31.642Z,6.33
2019-02-16T06:06:00.983Z,5.77
2019-02-16T06:08:30.345Z,6.97
2019-02-16T06:10:59.674Z,6.23
2019-02-16T06:13:29.004Z,7.77
2019-02-16T06:15:58.049Z,8.10
2019-02-16T06:18:27.284Z,7.33
2019-02-16T06:20:56.622Z,6.20
2019-02-16T06:23:25.971Z,6.43
2019-02-16T06:25:54.978Z,7.23
2019-02-16T06:28:23.887Z,8.77
2019-02-16T06:30:52.824Z,5.67
2019-02-16T06:33:21.748Z,6.23
2019-02-16T06:35:52.631Z,6.67
2019-02-16T06:38:21.707Z,6.20
2019-02-16T06:40:50.634Z,6.50
2019-02-16T06:43:19.870Z,6.70
2019-02-16T06:45:51.182Z,11.47
2019-02-16T06:48:19.920Z,6.80
2019-02-16T06:50:48.825Z,7.73
2019-02-16T06:53:18.102Z,8.90
2019-02-16T06:55:48.742Z,10.27
2019-02-16T06:58:17.642Z,9.60
2019-02-16T07:00:46.914Z,12.07
2019-02-16T07:03:16.252Z,19.57
2019-02-16T07:05:45.564Z,9.20
2019-02-16T07:08:14.589Z,7.13
2019-02-16T07:10:43.505Z,6.50
2019-02-16T07:13:12.753Z,7.77
2019-02-16T07:15:43.888Z,5.93
2019-02-16T07:18:17.552Z,5.83
2019-02-16T07:20:46.875Z,7.07
2019-02-16T07:23:22.194Z,6.73
2019-02-16T07:25:47.237Z,7.37
2019-02-16T07:28:16.558Z,7.30
2019-02-16T07:30:45.911Z,10.73
2019-02-16T07:33:15.239Z,8.00
2019-02-16T07:35:44.566Z,10.57
2019-02-16T07:38:13.922Z,11.60
2019-02-16T07:40:42.917Z,14.43
2019-02-16T07:43:13.790Z,10.47
2019-02-16T07:45:44.783Z,20.97
2019-02-16T07:48:24.686Z,13.43
2019-02-16T07:51:10.618Z,15.27
2019-02-16T07:53:56.475Z,10.63
2019-02-16T07:56:30.151Z,12.20
2019-02-16T07:59:03.555Z,11.43
2019-02-16T08:01:37.506Z,13.33
2019-02-16T08:04:20.495Z,161.27
2019-02-16T08:07:00.081Z,21.73
2019-02-16T08:09:36.742Z,18.53
2019-02-16T08:12:13.489Z,18.27
2019-02-16T08:15:00.319Z,101.90
2019-02-16T08:17:31.322Z,38.03
2019-02-16T08:20:18.271Z,15.93
2019-02-16T08:22:49.273Z,25.53
2019-02-16T08:25:36.253Z,24.73
2019-02-16T08:28:12.941Z,101.50
2019-02-16T08:30:43.916Z,16.60
2019-02-16T08:33:26.877Z,45.10
2019-02-16T08:35:57.854Z,31.43
2019-02-16T08:38:37.781Z,31.80
2019-02-16T08:41:14.221Z,142.43
2019-02-16T08:43:50.926Z,88.53
2019-02-16T08:46:27.614Z,178.27
2019-02-16T08:49:07.697Z,324.57
2019-02-16T08:51:38.661Z,95.93
2019-02-16T08:54:15.415Z,56.67
2019-02-16T08:56:46.380Z,35.17
2019-02-16T08:59:17.358Z,37.80
2019-02-16T09:01:48.360Z,34.00
2019-02-16T09:04:25.034Z,290.53
2019-02-16T09:07:01.999Z,35.30
2019-02-16T09:09:41.755Z,199.63
2019-02-16T09:12:15.482Z,383.37
2019-02-16T09:14:46.465Z,464.50
2019-02-16T09:17:17.450Z,493.63
2019-02-16T09:19:48.525Z,386.53
2019-02-16T09:22:35.517Z,393.17
2019-02-16T09:25:14.114Z,519.43
2019-02-16T09:28:03.311Z,338.43
2019-02-16T09:30:34.319Z,264.87
2019-02-16T09:33:11.128Z,325.80
2019-02-16T09:35:47.920Z,110.37
2019-02-16T09:38:34.719Z,69.30
2019-02-16T09:41:08.531Z,28.67
2019-02-16T09:43:39.503Z,25.50
2019-02-16T09:46:25.318Z,44.20
2019-02-16T09:49:10.885Z,14.40
2019-02-16T09:51:44.657Z,18.80
2019-02-16T09:54:15.634Z,17.90
2019-02-16T09:56:52.485Z,14.07
2019-02-16T09:59:39.608Z,12.90
2019-02-16T10:02:19.186Z,19.20
2019-02-16T10:05:05.014Z,18.27
2019-02-16T10:07:47.705Z,21.97
2019-02-16T10:10:18.685Z,14.93
2019-02-16T10:12:52.346Z,21.10
2019-02-16T10:15:41.386Z,18.33
2019-02-16T10:18:28.126Z,16.27
2019-02-16T10:20:59.105Z,27.33
2019-02-16T10:23:32.735Z,18.27
2019-02-16T10:26:03.741Z,18.33
2019-02-16T10:28:40.470Z,17.97
2019-02-16T10:31:20.436Z,15.10
2019-02-16T10:33:51.408Z,18.70
2019-02-16T10:36:25.097Z,17.07
2019-02-16T10:39:08.167Z,13.50
2019-02-16T10:41:42.062Z,15.00
2019-02-16T10:44:16.061Z,18.27
2019-02-16T10:46:55.838Z,15.97
2019-02-16T10:49:32.753Z,20.23
2019-02-16T10:52:03.738Z,18.03
2019-02-16T10:54:40.321Z,16.10
2019-02-16T10:57:27.455Z,15.73
2019-02-16T11:00:04.157Z,17.40
2019-02-16T11:02:46.967Z,16.03
2019-02-16T11:05:20.946Z,20.57
2019-02-16T11:08:00.969Z,20.03
2019-02-16T11:10:37.766Z,16.10
2019-02-16T11:13:17.460Z,19.47
2019-02-16T11:15:51.402Z,19.37
2019-02-16T11:18:38.690Z,21.37
2019-02-16T11:21:21.747Z,21.30
2019-02-16T11:23:52.703Z,23.93
2019-02-16T11:26:26.621Z,19.47
2019-02-16T11:29:13.737Z,18.57
2019-02-16T11:31:50.449Z,21.47
2019-02-16T11:34:37.146Z,20.77
2019-02-16T11:37:11.065Z,21.50
2019-02-16T11:39:57.954Z,19.60
2019-02-16T11:42:28.930Z,20.07
2019-02-16T11:45:05.633Z,22.33
2019-02-16T11:47:36.611Z,21.20
2019-02-16T11:50:17.825Z,20.27
2019-02-16T11:53:04.594Z,24.50
2019-02-16T11:55:53.685Z,23.97
2019-02-16T12:01:59.057Z,21.47
2019-02-16T12:04:36.005Z,20.47
2019-02-16T12:07:07.022Z,18.80
2019-02-16T12:09:46.712Z,18.50
2019-02-16T12:12:17.723Z,21.33
2019-02-16T12:14:54.471Z,21.67
2019-02-16T12:17:31.458Z,22.13
2019-02-16T12:20:02.441Z,20.73
2019-02-16T12:22:33.410Z,24.53
2019-02-16T12:25:10.062Z,25.53
2019-02-16T12:27:46.986Z,22.67
2019-02-16T12:30:35.363Z,22.17
2019-02-16T12:33:09.246Z,20.83
2019-02-16T12:35:52.975Z,17.77
2019-02-16T12:38:28.179Z,23.67
2019-02-16T12:41:08.275Z,19.60
2019-02-16T12:43:45.127Z,21.10
2019-02-16T12:46:18.858Z,26.37
2019-02-16T12:48:55.636Z,40.47
2019-02-16T12:51:26.642Z,20.60
2019-02-16T12:54:12.741Z,22.77
2019-02-16T12:56:45.931Z,29.80
2019-02-16T12:59:18.369Z,18.33
2019-02-16T13:02:08.678Z,20.93
2019-02-16T13:04:47.263Z,21.30
2019-02-16T13:07:31.166Z,31.27
2019-02-16T13:10:10.778Z,38.70
2019-02-16T13:12:43.759Z,34.93
2019-02-16T13:15:18.119Z,32.27
2019-02-16T13:18:05.519Z,28.87
2019-02-16T13:20:42.358Z,25.00
2019-02-16T13:23:16.788Z,25.90
2019-02-16T13:25:50.312Z,24.53
2019-02-16T13:28:28.929Z,23.80
2019-02-16T13:31:17.339Z,20.47
2019-02-16T13:33:48.574Z,22.20
2019-02-16T13:36:34.116Z,25.50
2019-02-16T13:39:17.959Z,21.93
2019-02-16T13:41:55.181Z,20.07
2019-02-16T13:44:41.453Z,18.43
2019-02-16T13:47:18.676Z,21.23
2019-02-16T13:49:53.334Z,19.67
2019-02-16T13:52:44.204Z,26.77
2019-02-16T13:55:33.194Z,22.33
2019-02-16T13:58:12.757Z,20.70
2019-02-16T14:01:01.877Z,28.10
2019-02-16T14:03:49.339Z,23.77
2019-02-16T14:06:27.589Z,20.60
2019-02-16T14:08:59.706Z,22.27
2019-02-16T14:11:34.857Z,22.90
2019-02-16T14:14:05.875Z,20.00
2019-02-16T14:16:50.344Z,19.73
2019-02-16T14:19:22.471Z,19.87
2019-02-16T14:21:52.616Z,18.37
2019-02-16T14:24:40.045Z,20.77
2019-02-16T14:27:10.800Z,19.30
2019-02-16T14:29:41.515Z,17.67
2019-02-16T14:32:22.337Z,20.93
2019-02-16T14:34:51.931Z,19.40
2019-02-16T14:37:22.939Z,23.10
2019-02-16T14:39:52.648Z,22.47
2019-02-16T14:42:22.060Z,15.93
2019-02-16T14:44:51.419Z,16.60
2019-02-16T14:47:20.905Z,18.60
2019-02-16T14:49:50.241Z,20.50
2019-02-16T14:52:35.239Z,20.80
2019-02-16T14:55:09.377Z,24.13
2019-02-16T14:57:39.883Z,17.23
2019-02-16T15:00:13.911Z,25.80
2019-02-16T15:02:45.214Z,20.63
2019-02-16T15:05:15.451Z,17.40
2019-02-16T15:07:45.277Z,16.83
2019-02-16T15:10:16.925Z,21.37
2019-02-16T15:12:54.681Z,23.60
2019-02-16T15:15:26.017Z,19.33
2019-02-16T15:17:57.892Z,19.17
2019-02-16T15:20:28.577Z,17.73
2019-02-16T15:22:58.848Z,20.27
2019-02-16T15:25:31.377Z,16.03
2019-02-16T15:28:00.797Z,18.53
2019-02-16T15:30:30.302Z,16.37
2019-02-16T15:32:59.693Z,17.37
2019-02-16T15:35:29.030Z,19.63
2019-02-16T15:37:58.425Z,17.77
2019-02-16T15:40:47.115Z,19.47
2019-02-16T15:43:16.495Z,20.23
2019-02-16T15:45:45.824Z,20.57
2019-02-16T15:48:15.165Z,17.27
2019-02-16T15:50:44.546Z,19.07
2019-02-16T15:53:13.946Z,17.73
2019-02-16T15:55:43.290Z,16.60
2019-02-16T15:58:12.659Z,20.13
2019-02-16T16:00:42.009Z,19.30
2019-02-16T16:03:11.351Z,18.47
2019-02-16T16:05:40.729Z,19.77
2019-02-16T16:08:14.174Z,18.93
2019-02-16T16:10:45.227Z,17.17
2019-02-16T16:13:18.972Z,16.67
2019-02-16T16:15:55.685Z,18.50
2019-02-16T16:18:41.730Z,18.10
2019-02-16T16:21:27.915Z,23.37
2019-02-16T16:24:15.610Z,20.07
2019-02-16T16:26:58.771Z,20.97
2019-02-16T16:29:35.814Z,19.40
2019-02-16T16:32:26.121Z,18.80
2019-02-16T16:35:02.725Z,18.63
2019-02-16T16:37:36.482Z,19.80
2019-02-16T16:40:09.427Z,22.55
2019-02-16T16:42:56.914Z,25.40
2019-02-16T16:45:28.023Z,23.40
2019-02-16T16:48:01.799Z,22.20
2019-02-16T16:50:32.811Z,19.90
2019-02-16T16:53:09.453Z,21.60
2019-02-16T16:55:40.467Z,21.70
2019-02-16T16:58:11.447Z,20.20
2019-02-16T17:00:45.579Z,23.10
2019-02-16T17:03:22.584Z,22.37
2019-02-16T17:05:59.710Z,23.10
2019-02-16T17:08:33.323Z,24.70
2019-02-16T17:11:20.612Z,22.20
2019-02-16T17:13:51.287Z,22.70
2019-02-16T17:16:22.255Z,20.20
2019-02-16T17:18:59.807Z,20.13
2019-02-16T17:21:34.968Z,20.97
2019-02-16T17:24:18.730Z,23.07
2019-02-16T17:26:59.476Z,19.00
2019-02-16T17:29:37.094Z,20.27
2019-02-16T17:32:24.822Z,24.20
2019-02-16T17:34:58.022Z,25.67
2019-02-16T17:37:31.621Z,27.43
2019-02-16T17:40:17.530Z,25.77
2019-02-16T17:42:51.484Z,29.60
2019-02-16T17:45:31.592Z,25.57
2019-02-16T17:54:08.563Z,30.03
2019-02-16T17:56:46.769Z,26.83
2019-02-16T17:59:21.566Z,36.50
2019-02-16T18:02:09.253Z,39.70
2019-02-16T18:04:40.272Z,39.87
2019-02-16T18:07:23.266Z,29.93
2019-02-16T18:09:59.787Z,26.50
2019-02-16T18:12:39.723Z,23.73
2019-02-16T18:15:14.529Z,28.40
2019-02-16T18:17:45.223Z,30.83
2019-02-16T18:20:16.131Z,24.63
2019-02-16T18:22:52.654Z,30.00
2019-02-16T18:25:23.647Z,25.70
2019-02-16T18:27:54.438Z,27.10
2019-02-16T18:30:34.329Z,26.83
2019-02-16T18:33:23.640Z,25.63
2019-02-16T18:36:13.047Z,25.80
2019-02-16T18:38:46.852Z,24.93
2019-02-16T18:41:34.141Z,29.07
2019-02-16T18:44:05.113Z,24.03
2019-02-16T18:46:36.107Z,27.40
2019-02-16T18:49:07.126Z,26.03
2019-02-16T18:51:38.083Z,30.60
2019-02-16T18:54:09.076Z,25.17
2019-02-16T18:57:06.328Z,30.20
2019-02-16T18:59:31.161Z,24.53
2019-02-16T19:02:18.745Z,25.13
2019-02-16T19:04:58.675Z,28.50
2019-02-16T19:07:35.607Z,25.73
2019-02-16T19:10:10.442Z,24.43
2019-02-16T19:12:53.383Z,21.10
2019-02-16T19:15:39.391Z,25.43
2019-02-16T19:18:18.025Z,28.20
2019-02-16T19:20:48.911Z,26.57
2019-02-16T19:23:35.036Z,30.07
2019-02-16T19:26:06.018Z,30.23
2019-02-16T19:28:55.352Z,30.10
2019-02-16T19:31:32.583Z,26.40
2019-02-16T19:34:15.716Z,30.80
2019-02-16T19:36:46.706Z,23.53
2019-02-16T19:39:17.715Z,29.13
2019-02-16T19:41:48.756Z,29.13
2019-02-16T19:44:27.909Z,25.00
2019-02-16T19:47:15.583Z,27.83
2019-02-16T19:49:49.546Z,28.30
2019-02-16T19:52:45.863Z,32.53
2019-02-16T19:55:31.928Z,37.60
2019-02-16T19:58:09.152Z,34.87
2019-02-16T20:00:49.184Z,34.20
2019-02-16T20:03:26.202Z,30.73
2019-02-16T20:06:06.189Z,34.00
2019-02-16T20:08:37.204Z,31.13
2019-02-16T20:11:08.197Z,32.40
2019-02-16T20:13:54.522Z,30.97
2019-02-16T20:16:45.268Z,30.40
2019-02-16T20:19:19.004Z,30.77
2019-02-16T20:21:52.943Z,28.87
2019-02-16T20:24:26.513Z,36.13
2019-02-16T20:27:03.266Z,37.60
2019-02-16T20:29:36.906Z,34.17
2019-02-16T20:32:22.935Z,31.53
2019-02-16T20:35:11.708Z,34.67
2019-02-16T20:37:42.696Z,32.10
2019-02-16T20:40:25.731Z,27.03
2019-02-16T20:42:56.704Z,31.30
2019-02-16T20:45:27.691Z,32.70
2019-02-16T20:48:01.651Z,32.73
2019-02-16T20:50:35.606Z,33.03
2019-02-16T20:53:09.470Z,33.37
2019-02-16T20:55:42.906Z,34.73
2019-02-16T20:58:16.723Z,38.37
2019-02-16T21:01:02.713Z,38.30
2019-02-16T21:03:42.816Z,41.87
2019-02-16T21:06:22.926Z,36.80
2019-02-16T21:08:56.720Z,36.47
2019-02-16T21:11:36.959Z,33.17
2019-02-16T21:14:10.991Z,37.33
2019-02-16T21:16:42.055Z,37.00
2019-02-16T21:19:15.742Z,41.63
2019-02-16T21:21:55.900Z,45.33
2019-02-16T21:24:32.539Z,43.73
2019-02-16T21:27:03.559Z,45.23
2019-02-16T21:29:50.775Z,39.83
2019-02-16T21:32:24.485Z,39.00
2019-02-16T21:34:55.472Z,38.93
2019-02-16T21:37:44.797Z,40.93
2019-02-16T21:40:15.794Z,36.73
2019-02-16T21:42:52.307Z,37.50
2019-02-16T21:45:32.050Z,37.00
2019-02-16T21:48:11.890Z,33.57
2019-02-16T21:50:52.126Z,41.47
2019-02-16T21:53:37.951Z,44.33
2019-02-16T21:56:14.822Z,41.33
2019-02-16T21:58:51.761Z,45.10
2019-02-16T22:01:22.758Z,39.40
2019-02-16T22:03:53.758Z,37.97
2019-02-16T22:06:40.955Z,32.60
2019-02-16T22:09:20.832Z,33.13
2019-02-16T22:11:54.538Z,35.37
2019-02-16T22:14:23.911Z,33.17
2019-02-16T22:16:53.351Z,36.23
2019-02-16T22:19:22.830Z,37.33
2019-02-16T22:21:52.695Z,38.20
2019-02-16T22:24:22.201Z,36.43
2019-02-16T22:26:53.533Z,38.27
2019-02-16T22:29:22.885Z,31.13
2019-02-16T22:31:52.219Z,41.37
2019-02-16T22:34:21.586Z,32.77
2019-02-16T22:36:50.924Z,37.20
2019-02-16T22:39:20.338Z,35.00
2019-02-16T22:41:49.719Z,37.70
2019-02-16T22:44:19.067Z,37.50
2019-02-16T22:46:48.408Z,40.53
2019-02-16T22:49:17.848Z,38.77
2019-02-16T22:51:47.196Z,38.00
2019-02-16T22:54:16.542Z,35.80
2019-02-16T22:56:45.922Z,33.80
2019-02-16T22:59:15.259Z,32.80
2019-02-16T23:01:44.677Z,34.57
2019-02-16T23:04:14.898Z,33.57
2019-02-16T23:06:44.319Z,34.90
2019-02-16T23:09:15.300Z,37.40
2019-02-16T23:11:44.678Z,39.53
2019-02-16T23:14:14.023Z,39.13
2019-02-16T23:16:43.431Z,38.23
2019-02-16T23:19:12.798Z,36.77
2019-02-16T23:21:42.150Z,38.50
2019-02-16T23:24:11.481Z,40.47
2019-02-16T23:26:40.850Z,36.93
2019-02-16T23:29:10.194Z,37.30
2019-02-16T23:31:39.594Z,31.47
2019-02-16T23:34:09.011Z,36.13
2019-02-16T23:36:38.350Z,36.77
2019-02-16T23:39:07.859Z,34.83
2019-02-16T23:41:37.242Z,35.67
2019-02-16T23:44:06.587Z,37.07
2019-02-16T23:46:36.004Z,31.60
2019-02-16T23:49:05.369Z,33.73
2019-02-16T23:51:34.710Z,39.93
2019-02-16T23:54:04.055Z,34.33
2019-02-16T23:56:33.442Z,31.07
2019-02-16T23:59:02.830Z,35.40
